^^
Refsnesbakken Borettslag Station Historical Data
 
Daily Summary for May 09, 2026 Units:  Metric    English   Both
Daily Weekly Monthly Yearly
  Current: High: Low: Average:
Temperature: 13.2 °C 13.2 °C 6.3 °C 9 °C
Dew Point: 7.8 °C 8.2 °C 4.8 °C 6.8 °C
Humidity: 70.2% 91% 70% 86%
Wind Speed: 18.5km/h 18.5km/h 3.7km/h 8.7km/h
Wind Gust: 19.3km/h 19.3km/h - -
WindSouth - - SE
Pressure: 1025.6 hPa 1026.8 hPa 1025.6 hPa -
Precipitation: 0.0 mm      
 
 
Tabular Data for May 09, 2026
Time Temperature Dew Point Pressure Wind Wind Speed Wind Gust Humidity Rainfall Rate (Hourly) solar
00:09 9.9 °C 7.2 °C 1026.8 hPa South 7.4 km/h 8 km/h 83% 0.0 mm 0 W/m2
00:14 9.9 °C 7.3 °C 1026.8 hPa South 7.4 km/h 8 km/h 83.5% 0.0 mm 0 W/m2
00:19 9.9 °C 7.4 °C 1026.8 hPa South 7.4 km/h 8 km/h 84.3% 0.0 mm 0 W/m2
00:24 9.9 °C 7.5 °C 1026.8 hPa South 7.4 km/h 8 km/h 85% 0.0 mm 0 W/m2
00:29 9.9 °C 7.5 °C 1026.7 hPa South 7.4 km/h 8 km/h 85.2% 0.0 mm 0 W/m2
00:34 9.8 °C 7.6 °C 1026.7 hPa SE 6.7 km/h 8 km/h 86% 0.0 mm 0 W/m2
00:39 9.8 °C 7.5 °C 1026.7 hPa SE 5.6 km/h 8 km/h 85.5% 0.0 mm 0 W/m2
00:44 9.8 °C 7.4 °C 1026.7 hPa SE 5.6 km/h 5.6 km/h 85% 0.0 mm 0 W/m2
00:49 9.8 °C 7.3 °C 1026.8 hPa SE 5.6 km/h 5.6 km/h 84.4% 0.0 mm 0 W/m2
00:54 9.8 °C 7.4 °C 1026.8 hPa SE 5.6 km/h 5.6 km/h 84.8% 0.0 mm 0 W/m2
00:59 9.8 °C 7.4 °C 1026.7 hPa SE 5.6 km/h 5.6 km/h 85% 0.0 mm 0 W/m2
01:04 9.7 °C 7.3 °C 1026.5 hPa SE 7 km/h 7.4 km/h 85% 0.0 mm 0 W/m2
01:09 9.5 °C 7.1 °C 1026.5 hPa SE 7.4 km/h 8 km/h 85% 0.0 mm 0 W/m2
01:14 9.3 °C 6.9 °C 1026.5 hPa SE 7.4 km/h 8 km/h 85% 0.0 mm 0 W/m2
01:19 9.3 °C 7 °C 1026.5 hPa SE 7.4 km/h 8 km/h 85.8% 0.0 mm 0 W/m2
01:24 9.5 °C 7.2 °C 1026.5 hPa SE 7.4 km/h 8 km/h 86% 0.0 mm 0 W/m2
01:29 9.5 °C 7.3 °C 1026.5 hPa SE 7.4 km/h 8 km/h 86% 0.0 mm 0 W/m2
01:34 9.4 °C 7.2 °C 1026.5 hPa SSE 7.4 km/h 8 km/h 86% 0.0 mm 0 W/m2
01:39 9.4 °C 7.2 °C 1026.5 hPa South 7.4 km/h 8 km/h 86.6% 0.0 mm 0 W/m2
01:44 9.4 °C 7.3 °C 1026.5 hPa South 7.4 km/h 8 km/h 87% 0.0 mm 0 W/m2
01:49 9.4 °C 7.5 °C 1026.6 hPa South 7.4 km/h 8 km/h 87.5% 0.0 mm 0 W/m2
01:54 9.5 °C 7.6 °C 1026.7 hPa South 7.4 km/h 8 km/h 88% 0.0 mm 0 W/m2
01:59 9.5 °C 7.6 °C 1026.7 hPa South 7.4 km/h 8 km/h 88% 0.0 mm 0 W/m2
02:04 9.5 °C 7.7 °C 1026.6 hPa SSE 6.7 km/h 8 km/h 88.8% 0.0 mm 0 W/m2
02:09 9.4 °C 7.7 °C 1026.7 hPa SSE 5.6 km/h 8 km/h 89% 0.0 mm 0 W/m2
02:14 9.4 °C 7.7 °C 1026.6 hPa SSE 5.6 km/h 5.6 km/h 89% 0.0 mm 0 W/m2
02:19 9.3 °C 7.6 °C 1026.6 hPa SSE 5.6 km/h 5.6 km/h 89% 0.0 mm 0 W/m2
02:24 9.3 °C 7.6 °C 1026.5 hPa SSE 5.6 km/h 5.6 km/h 89% 0.0 mm 0 W/m2
02:29 9.3 °C 7.6 °C 1026.6 hPa SSE 5.6 km/h 5.6 km/h 89.3% 0.0 mm 0 W/m2
02:34 9.2 °C 7.6 °C 1026.5 hPa SSE 5.6 km/h 5.6 km/h 89.5% 0.0 mm 0 W/m2
02:39 9.1 °C 7.4 °C 1026.5 hPa SSE 5.6 km/h 5.6 km/h 89% 0.0 mm 0 W/m2
02:44 9.1 °C 7.4 °C 1026.6 hPa SSE 5.6 km/h 5.6 km/h 89% 0.0 mm 0 W/m2
02:49 9.1 °C 7.4 °C 1026.5 hPa SSE 5.6 km/h 5.6 km/h 89% 0.0 mm 0 W/m2
02:54 9 °C 7.2 °C 1026.5 hPa SSE 5.6 km/h 5.6 km/h 88.5% 0.0 mm 0 W/m2
02:59 8.9 °C 7 °C 1026.5 hPa SSE 5.6 km/h 5.6 km/h 88% 0.0 mm 0 W/m2
03:04 8.9 °C 7 °C 1026.5 hPa SE 5.6 km/h 5.6 km/h 88% 0.0 mm 0 W/m2
03:09 8.9 °C 6.9 °C 1026.5 hPa SE 5.6 km/h 5.6 km/h 87.7% 0.0 mm 0 W/m2
03:14 8.8 °C 6.8 °C 1026.5 hPa SE 5.6 km/h 5.6 km/h 87.4% 0.0 mm 0 W/m2
03:19 8.7 °C 6.7 °C 1026.5 hPa SE 5.6 km/h 5.6 km/h 87% 0.0 mm 0 W/m2
03:24 8.7 °C 6.7 °C 1026.5 hPa SE 5.6 km/h 5.6 km/h 87.3% 0.0 mm 0 W/m2
03:29 8.6 °C 6.6 °C 1026.5 hPa SE 5.6 km/h 5.6 km/h 87% 0.0 mm 0 W/m2
03:34 8.5 °C 6.4 °C 1026.6 hPa ESE 5.6 km/h 5.6 km/h 87% 0.0 mm 0 W/m2
03:39 8.4 °C 6.3 °C 1026.5 hPa East 5.6 km/h 5.6 km/h 87% 0.0 mm 0 W/m2
03:44 8.3 °C 6.2 °C 1026.5 hPa East 5.6 km/h 5.6 km/h 87% 0.0 mm 0 W/m2
03:49 8.2 °C 6.3 °C 1026.5 hPa East 5.6 km/h 5.6 km/h 87.7% 0.0 mm 0 W/m2
03:54 8 °C 6 °C 1026.6 hPa East 5.6 km/h 5.6 km/h 87.3% 0.0 mm 0 W/m2
03:59 7.7 °C 5.8 °C 1026.7 hPa East 5.6 km/h 5.6 km/h 87.7% 0.0 mm 0 W/m2
04:04 7.5 °C 5.5 °C 1026.7 hPa ESE 8.5 km/h 9.3 km/h 87.5% 0.0 mm 0 W/m2
04:09 7.2 °C 5.4 °C 1026.6 hPa ESE 9.3 km/h 9.7 km/h 88% 0.0 mm 0 W/m2
04:14 7 °C 5.2 °C 1026.5 hPa ESE 9.3 km/h 9.7 km/h 88% 0.0 mm 0 W/m2
04:19 6.8 °C 5 °C 1026.5 hPa ESE 9.3 km/h 9.7 km/h 88.2% 0.0 mm 0 W/m2
04:24 6.6 °C 4.9 °C 1026.5 hPa ESE 9.3 km/h 9.7 km/h 88.9% 0.0 mm 0 W/m2
04:29 6.5 °C 4.8 °C 1026.5 hPa ESE 9.3 km/h 9.7 km/h 89% 0.0 mm 0 W/m2
04:34 6.4 °C 4.9 °C 1026.5 hPa ESE 7.8 km/h 9.7 km/h 89.7% 0.0 mm 0 W/m2
04:39 6.5 °C 5 °C 1026.5 hPa ESE 5.6 km/h 9.7 km/h 90% 0.0 mm 0 W/m2
04:44 6.6 °C 5.1 °C 1026.4 hPa ESE 5.6 km/h 5.6 km/h 90% 0.0 mm 0 W/m2
04:49 6.6 °C 5 °C 1026.3 hPa ESE 5.6 km/h 5.6 km/h 89.7% 0.0 mm 0 W/m2
04:54 6.5 °C 4.9 °C 1026.3 hPa ESE 5.6 km/h 5.6 km/h 89.4% 0.0 mm 0 W/m2
04:59 6.4 °C 4.9 °C 1026.2 hPa ESE 5.6 km/h 5.6 km/h 90% 0.0 mm 5 W/m2
05:04 6.3 °C 4.8 °C 1026.2 hPa East 5.6 km/h 5.6 km/h 90% 0.0 mm 7 W/m2
05:09 6.3 °C 4.8 °C 1026.2 hPa East 5.6 km/h 5.6 km/h 90% 0.0 mm 9 W/m2
05:14 6.3 °C 4.8 °C 1026.2 hPa East 5.6 km/h 5.6 km/h 90% 0.0 mm 11 W/m2
05:19 6.3 °C 4.8 °C 1026.1 hPa East 5.6 km/h 5.6 km/h 90.3% 0.0 mm 14 W/m2
05:24 6.3 °C 4.9 °C 1026.1 hPa East 5.6 km/h 5.6 km/h 91% 0.0 mm 16 W/m2
05:29 6.3 °C 4.9 °C 1026.1 hPa East 5.6 km/h 5.6 km/h 91% 0.0 mm 18 W/m2
05:34 6.3 °C 4.9 °C 1026.1 hPa East 5.6 km/h 5.6 km/h 91% 0.0 mm 21 W/m2
05:39 6.3 °C 4.9 °C 1026.1 hPa East 5.6 km/h 5.6 km/h 91% 0.0 mm 23 W/m2
05:44 6.3 °C 4.9 °C 1026.0 hPa East 5.6 km/h 5.6 km/h 91% 0.0 mm 26 W/m2
05:49 6.4 °C 5 °C 1026.0 hPa East 5.6 km/h 5.6 km/h 91% 0.0 mm 28 W/m2
05:54 6.4 °C 5 °C 1026.0 hPa East 5.6 km/h 5.6 km/h 91% 0.0 mm 32 W/m2
05:59 6.5 °C 5.1 °C 1025.9 hPa East 5.6 km/h 5.6 km/h 91% 0.0 mm 35 W/m2
06:04 6.5 °C 5.1 °C 1026.0 hPa ESE 4.8 km/h 5.6 km/h 91% 0.0 mm 37 W/m2
06:09 6.6 °C 5.2 °C 1025.9 hPa ESE 3.7 km/h 4.8 km/h 91% 0.0 mm 40 W/m2
06:14 6.7 °C 5.3 °C 1026.0 hPa ESE 3.7 km/h 3.7 km/h 91% 0.0 mm 44 W/m2
06:19 6.8 °C 5.4 °C 1025.9 hPa ESE 3.7 km/h 3.7 km/h 91% 0.0 mm 46 W/m2
06:24 6.8 °C 5.4 °C 1025.9 hPa ESE 3.7 km/h 3.7 km/h 91% 0.0 mm 47 W/m2
06:29 6.9 °C 5.4 °C 1025.9 hPa ESE 3.7 km/h 3.7 km/h 90.4% 0.0 mm 49 W/m2
06:34 7 °C 5.5 °C 1025.9 hPa East 3.7 km/h 3.7 km/h 90.7% 0.0 mm 51 W/m2
06:39 7.1 °C 5.6 °C 1025.9 hPa East 3.7 km/h 3.7 km/h 90.2% 0.0 mm 54 W/m2
06:44 7.2 °C 5.7 °C 1026.0 hPa East 3.7 km/h 3.7 km/h 90% 0.0 mm 56 W/m2
06:49 7.4 °C 5.8 °C 1025.9 hPa East 3.7 km/h 3.7 km/h 90% 0.0 mm 58 W/m2
06:54 7.5 °C 6 °C 1026.0 hPa East 3.7 km/h 3.7 km/h 90% 0.0 mm 60 W/m2
06:59 7.7 °C 6.1 °C 1026.1 hPa East 3.7 km/h 3.7 km/h 90% 0.0 mm 62 W/m2
07:04 7.9 °C 6.3 °C 1026.0 hPa ESE 5.2 km/h 5.6 km/h 90% 0.0 mm 65 W/m2
07:09 8 °C 6.4 °C 1026.0 hPa ESE 5.6 km/h 5.6 km/h 89.6% 0.0 mm 67 W/m2
07:14 8.1 °C 6.4 °C 1026.0 hPa ESE 5.6 km/h 5.6 km/h 89% 0.0 mm 69 W/m2
07:19 8.2 °C 6.5 °C 1025.9 hPa ESE 5.6 km/h 5.6 km/h 89% 0.0 mm 72 W/m2
07:24 8.3 °C 6.4 °C 1025.9 hPa ESE 5.6 km/h 5.6 km/h 88.1% 0.0 mm 72 W/m2
07:29 8.4 °C 6.6 °C 1025.9 hPa ESE 5.6 km/h 5.6 km/h 88.7% 0.0 mm 72 W/m2
07:34 8.7 °C 7 °C 1025.9 hPa SE 8.5 km/h 9.3 km/h 88.9% 0.0 mm 72 W/m2
07:39 8.9 °C 7 °C 1025.8 hPa SE 9.3 km/h 9.7 km/h 88% 0.0 mm 70 W/m2
07:44 9 °C 7 °C 1025.8 hPa SE 9.3 km/h 9.7 km/h 87.3% 0.0 mm 67 W/m2
07:49 9.2 °C 7.1 °C 1025.8 hPa SE 9.3 km/h 9.7 km/h 87% 0.0 mm 63 W/m2
07:54 9.3 °C 7.2 °C 1025.8 hPa SE 9.3 km/h 9.7 km/h 87% 0.0 mm 70 W/m2
07:59 9.4 °C 7.3 °C 1025.8 hPa SE 9.3 km/h 9.7 km/h 87% 0.0 mm 70 W/m2
08:04 9.5 °C 7.4 °C 1025.8 hPa South 9.3 km/h 9.7 km/h 87% 0.0 mm 69 W/m2
08:09 9.6 °C 7.5 °C 1025.8 hPa SSW 9.3 km/h 9.7 km/h 87% 0.0 mm 74 W/m2
08:14 9.7 °C 7.6 °C 1025.8 hPa SSW 9.3 km/h 9.7 km/h 87% 0.0 mm 79 W/m2
08:19 9.9 °C 7.8 °C 1025.8 hPa SSW 9.3 km/h 9.7 km/h 87% 0.0 mm 84 W/m2
08:24 10 °C 7.9 °C 1025.8 hPa SSW 9.3 km/h 9.7 km/h 87% 0.0 mm 86 W/m2
08:29 10.1 °C 8.1 °C 1025.8 hPa SSW 9.3 km/h 9.7 km/h 87% 0.0 mm 86 W/m2
08:34 10.2 °C 8.2 °C 1025.8 hPa SSW 13.6 km/h 14.8 km/h 87% 0.0 mm 86 W/m2
08:39 10.3 °C 8.2 °C 1025.8 hPa SSW 14.8 km/h 14.8 km/h 87% 0.0 mm 84 W/m2
08:44 10.4 °C 8.2 °C 1025.8 hPa SSW 14.8 km/h 14.8 km/h 86.2% 0.0 mm 88 W/m2
08:49 10.4 °C 8.2 °C 1025.8 hPa SSW 14.8 km/h 14.8 km/h 85.9% 0.0 mm 91 W/m2
08:54 10.5 °C 8.1 °C 1025.9 hPa SSW 14.8 km/h 14.8 km/h 85% 0.0 mm 93 W/m2
08:59 10.6 °C 8.2 °C 1025.9 hPa SSW 14.8 km/h 14.8 km/h 85% 0.0 mm 95 W/m2
09:04 10.7 °C 8.1 °C 1025.8 hPa SSW 14.8 km/h 14.8 km/h 84.4% 0.0 mm 93 W/m2
09:09 10.7 °C 8.1 °C 1025.8 hPa South 14.8 km/h 14.8 km/h 84% 0.0 mm 98 W/m2
09:14 10.8 °C 8.1 °C 1025.9 hPa South 14.8 km/h 14.8 km/h 83.5% 0.0 mm 105 W/m2
09:19 10.8 °C 8 °C 1025.8 hPa South 14.8 km/h 14.8 km/h 82.9% 0.0 mm 109 W/m2
09:24 10.8 °C 7.9 °C 1025.8 hPa South 14.8 km/h 14.8 km/h 82% 0.0 mm 120 W/m2
09:29 10.9 °C 7.9 °C 1025.8 hPa South 14.8 km/h 14.8 km/h 81.4% 0.0 mm 258 W/m2
09:34 11 °C 7.8 °C 1025.7 hPa South 17.6 km/h 18.5 km/h 80.4% 0.0 mm 438 W/m2
09:39 11.2 °C 7.8 °C 1025.7 hPa South 18.5 km/h 19.3 km/h 79.6% 0.0 mm 424 W/m2
09:44 11.4 °C 7.8 °C 1025.7 hPa South 18.5 km/h 19.3 km/h 78.3% 0.0 mm 438 W/m2
09:49 11.6 °C 7.7 °C 1025.7 hPa South 18.5 km/h 19.3 km/h 77% 0.0 mm 438 W/m2
09:54 11.7 °C 7.6 °C 1025.7 hPa South 18.5 km/h 19.3 km/h 76% 0.0 mm 424 W/m2
09:59 11.9 °C 7.7 °C 1025.7 hPa South 18.5 km/h 19.3 km/h 75.4% 0.0 mm 425 W/m2
10:04 12 °C 7.5 °C 1025.7 hPa South 18.5 km/h 19.3 km/h 74.2% 0.0 mm 441 W/m2
10:09 12.1 °C 7.6 °C 1025.7 hPa South 18.5 km/h 19.3 km/h 74.3% 0.0 mm 452 W/m2
10:14 12.2 °C 7.7 °C 1025.7 hPa South 18.5 km/h 19.3 km/h 73.8% 0.0 mm 441 W/m2
10:19 12.4 °C 7.6 °C 1025.7 hPa South 18.5 km/h 19.3 km/h 73% 0.0 mm 448 W/m2
10:24 12.5 °C 7.7 °C 1026.3 hPa South 18.5 km/h 19.3 km/h 72.7% 0.0 mm 441 W/m2
10:29 12.6 °C 7.8 °C 1025.7 hPa South 18.5 km/h 19.3 km/h 72.5% 0.0 mm 480 W/m2
10:34 12.8 °C 7.9 °C 1025.7 hPa South 18.5 km/h 19.3 km/h 71.9% 0.0 mm 506 W/m2
10:39 12.9 °C 7.8 °C 1025.9 hPa South 18.5 km/h 19.3 km/h 71% 0.0 mm 519 W/m2
10:44 13 °C 7.8 °C 1025.6 hPa South 18.5 km/h 19.3 km/h 70.4% 0.0 mm 575 W/m2
10:49 13.1 °C 7.8 °C 1025.6 hPa South 18.5 km/h 19.3 km/h 70% 0.0 mm 577 W/m2
10:54 13.2 °C 7.8 °C 1025.6 hPa South 18.5 km/h 19.3 km/h 70.2% 0.0 mm 594 W/m2
Refsnesbakken, Moss, Norway
Compliments of Weather Underground - 2 mb